Portada
METAR-TAF:

METAR-TAF

Aeropuertos :

Aeropuerto de Žilina

Žilina, Eslovaquia

latitud: 49-14N, longitud: 018-36-49E, altitud: 312 m

Observación

El informe se hizo hace 24 minutos, a las 05:30 UTC
Viento 4 kt con dirección variable
Temperatura 6°C
Humedad 70%
Presión 1003 hPa
Visibilidad 10 km o más
Cielo cubierto a una altura de 2800 ft

METAR: LZZI 040530Z VRB04KT 9999 OVC028 06/01 Q1003

Hora: 06:54 (05:54 UTC)

Pronóstico

El informe se hizo hace 54 minutos, a las 05:00 UTC
Pronóstico válido del 04 a las 06 UTC al 04 a las 15 UTC
Viento 5 kt del este
Visibilidad 10 km o más
Nubes dispersas a una altura de 2900 ft
Cielo nuboso a una altura de 3400 ft
Temporalmente
del 04 a las 06 UTC al 04 a las 15 UTC
Viento 10 kt del sur
Cielo nuboso a una altura de 1000 ft
Cielo cubierto a una altura de 2000 ft
lluvia ligera, nieve

TAF: LZZI 040500Z 0406/0415 10005KT 9999 SCT029 BKN034 TEMPO 0406/0415 19010KT -RASN BKN010 OVC020

Observaciones y pronósticos meteorológicos de más de 4000 aeropuertos (mensajes METAR y TAF).

Los puntos amarillos y rojos representan las estaciones disponibles.

Ponga el ratón en el punto deseado para ver el nombre de la estación.

Haga clic para ver las observaciones y los pronósticos meteorológicos.

Para cambiar el mapa : haga clic en los botones verdes con una cruz de color negro para hacer un zoom, en el botón verde con un guión para alejar o en las flechas verdes para mapas adyacentes.


METAR-TAF: